createdAt,value
2022-10-21T00:00:43.362Z,22.17
2022-10-21T00:03:30.462Z,21.10
2022-10-21T00:05:58.098Z,18.75
2022-10-21T00:08:25.768Z,25.05
2022-10-21T00:10:56.185Z,19.10
2022-10-21T00:13:24.260Z,22.80
2022-10-21T00:16:00.025Z,23.65
2022-10-21T00:18:28.336Z,22.13
2022-10-21T00:20:55.962Z,23.15
2022-10-21T00:23:23.386Z,22.63
2022-10-21T00:25:50.937Z,22.75
2022-10-21T00:28:18.064Z,21.55
2022-10-21T00:30:46.721Z,18.98
2022-10-21T00:33:15.290Z,19.67
2022-10-21T00:35:42.637Z,27.58
2022-10-21T00:38:10.311Z,36.97
2022-10-21T00:40:37.665Z,43.63
2022-10-21T00:43:04.818Z,38.15
2022-10-21T00:45:32.328Z,41.60
2022-10-21T00:48:09.793Z,33.42
2022-10-21T00:50:47.192Z,40.20
2022-10-21T00:53:17.150Z,42.25
2022-10-21T00:55:55.084Z,33.90
2022-10-21T00:58:28.857Z,27.70
2022-10-21T01:00:59.684Z,28.23
2022-10-21T01:03:29.880Z,36.30
2022-10-21T01:06:01.582Z,32.17
2022-10-21T01:08:29.903Z,30.88
2022-10-21T01:10:58.940Z,29.15
2022-10-21T01:13:47.280Z,28.90
2022-10-21T01:16:36.487Z,27.50
2022-10-21T01:19:19.038Z,29.52
2022-10-21T01:22:19.409Z,35.85
2022-10-21T01:25:27.223Z,29.08
2022-10-21T01:28:31.888Z,27.85
2022-10-21T01:31:03.014Z,28.35
2022-10-21T01:34:14.821Z,27.02
2022-10-21T01:36:57.043Z,29.65
2022-10-21T01:39:39.383Z,27.92
2022-10-21T01:42:46.062Z,24.02
2022-10-21T01:45:37.534Z,29.70
2022-10-21T01:48:24.626Z,24.02
2022-10-21T01:51:04.828Z,24.52
2022-10-21T01:53:48.724Z,28.48
2022-10-21T01:56:17.708Z,31.33
2022-10-21T01:58:48.166Z,26.17
2022-10-21T02:01:18.926Z,30.05
2022-10-21T02:03:53.314Z,33.38
2022-10-21T02:06:20.997Z,36.67
2022-10-21T02:08:48.387Z,31.48
2022-10-21T02:11:18.692Z,39.90
2022-10-21T02:13:54.343Z,41.97
2022-10-21T02:16:28.418Z,38.17
2022-10-21T02:18:57.399Z,36.95
2022-10-21T02:21:29.197Z,55.53
2022-10-21T02:24:35.447Z,63.88
2022-10-21T02:27:03.056Z,50.30
2022-10-21T02:29:38.310Z,54.88
2022-10-21T02:32:48.421Z,53.70
2022-10-21T02:35:38.491Z,34.95
2022-10-21T02:38:28.677Z,41.08
2022-10-21T02:41:06.318Z,41.13
2022-10-21T02:43:57.871Z,39.78
2022-10-21T02:46:26.646Z,40.53
2022-10-21T02:48:54.031Z,52.10
2022-10-21T02:51:21.259Z,42.10
2022-10-21T02:53:48.678Z,50.17
2022-10-21T02:56:15.899Z,39.42
2022-10-21T02:58:43.340Z,50.33
2022-10-21T03:01:10.569Z,45.80
2022-10-21T03:03:37.951Z,49.92
2022-10-21T03:06:05.262Z,35.10
2022-10-21T03:08:32.684Z,47.05
2022-10-21T03:11:00.220Z,39.05
2022-10-21T03:13:27.691Z,44.90
2022-10-21T03:15:54.974Z,43.35
2022-10-21T03:18:22.363Z,41.53
2022-10-21T03:20:51.398Z,39.55
2022-10-21T03:23:20.122Z,38.40
2022-10-21T03:25:50.740Z,36.42
2022-10-21T03:28:18.121Z,33.97
2022-10-21T03:30:45.307Z,33.80
2022-10-21T03:33:12.677Z,34.78
2022-10-21T03:35:39.835Z,30.30
2022-10-21T03:38:07.398Z,34.50
2022-10-21T03:40:34.601Z,38.58
2022-10-21T03:43:01.942Z,31.08
2022-10-21T03:45:29.144Z,35.00
2022-10-21T03:47:56.602Z,37.05
2022-10-21T03:50:26.605Z,36.30
2022-10-21T03:52:55.849Z,29.83
2022-10-21T03:55:25.279Z,31.80
2022-10-21T03:57:54.021Z,31.52
2022-10-21T04:00:21.558Z,34.22
2022-10-21T04:02:49.218Z,40.63
2022-10-21T04:05:17.222Z,41.58
2022-10-21T04:07:48.152Z,41.05
2022-10-21T04:10:19.355Z,33.25
2022-10-21T04:12:46.687Z,34.10
2022-10-21T04:15:14.270Z,51.72
2022-10-21T04:17:44.997Z,38.47
2022-10-21T04:20:12.746Z,34.63
2022-10-21T04:22:40.558Z,47.90
2022-10-21T04:25:08.328Z,39.47
2022-10-21T04:27:35.683Z,32.92
2022-10-21T04:30:02.996Z,31.67
2022-10-21T04:32:30.515Z,32.85
2022-10-21T04:34:57.698Z,28.10
2022-10-21T04:37:25.093Z,43.75
2022-10-21T04:39:52.252Z,31.75
2022-10-21T04:42:19.750Z,33.80
2022-10-21T04:44:47.140Z,34.10
2022-10-21T04:47:15.144Z,29.58
2022-10-21T04:49:42.410Z,28.40
2022-10-21T04:52:09.800Z,42.88
2022-10-21T04:54:36.944Z,41.42
2022-10-21T04:57:04.464Z,35.25
2022-10-21T04:59:32.567Z,40.92
2022-10-21T05:04:33.591Z,39.38
2022-10-21T05:07:00.889Z,36.63
2022-10-21T05:09:28.136Z,36.85
2022-10-21T05:11:55.521Z,32.53
2022-10-21T05:14:23.000Z,38.67
2022-10-21T05:16:50.508Z,32.15
2022-10-21T05:19:17.699Z,34.45
2022-10-21T05:21:47.131Z,39.47
2022-10-21T05:24:16.324Z,36.70
2022-10-21T05:26:43.765Z,32.67
2022-10-21T05:29:10.964Z,34.95
2022-10-21T05:31:38.355Z,33.30
2022-10-21T05:34:05.480Z,38.25
2022-10-21T05:36:33.051Z,35.15
2022-10-21T05:39:00.230Z,41.50
2022-10-21T05:41:27.636Z,56.28
2022-10-21T05:43:54.892Z,51.55
2022-10-21T05:46:22.213Z,44.40
2022-10-21T05:48:49.533Z,44.25
2022-10-21T05:51:18.183Z,40.15
2022-10-21T05:53:45.434Z,45.53
2022-10-21T05:56:12.827Z,39.40
2022-10-21T05:58:39.969Z,35.55
2022-10-21T06:01:07.499Z,37.60
2022-10-21T06:03:35.549Z,38.20
2022-10-21T06:06:07.144Z,38.28
2022-10-21T06:08:39.294Z,41.20
2022-10-21T06:11:14.362Z,37.75
2022-10-21T06:13:42.470Z,36.55
2022-10-21T06:16:12.534Z,34.83
2022-10-21T06:18:41.446Z,35.05
2022-10-21T06:21:09.804Z,36.38
2022-10-21T06:23:38.003Z,36.97
2022-10-21T06:26:10.653Z,29.40
2022-10-21T06:28:40.531Z,31.08
2022-10-21T06:31:11.610Z,35.92
2022-10-21T06:33:38.769Z,29.95
2022-10-21T06:36:06.619Z,33.55
2022-10-21T06:38:33.877Z,30.23
2022-10-21T06:41:10.606Z,38.70
2022-10-21T06:43:42.008Z,38.00
2022-10-21T06:46:13.112Z,33.33
2022-10-21T06:48:40.491Z,34.47
2022-10-21T06:51:17.012Z,35.60
2022-10-21T06:53:45.766Z,29.90
2022-10-21T06:56:18.643Z,35.13
2022-10-21T06:58:49.357Z,30.60
2022-10-21T07:01:34.290Z,31.55
2022-10-21T07:04:04.600Z,30.40
2022-10-21T07:09:01.292Z,25.90
2022-10-21T07:11:29.170Z,25.27
2022-10-21T07:13:56.848Z,23.63
2022-10-21T07:16:28.169Z,23.15
2022-10-21T07:18:55.851Z,25.45
2022-10-21T07:21:26.630Z,27.17
2022-10-21T07:23:57.867Z,19.70
2022-10-21T07:26:29.816Z,23.52
2022-10-21T07:28:59.865Z,19.88
2022-10-21T07:31:31.392Z,18.63
2022-10-21T07:36:41.595Z,21.08
2022-10-21T07:39:13.460Z,24.20
2022-10-21T07:41:48.436Z,26.15
2022-10-21T07:44:17.432Z,22.38
2022-10-21T07:46:46.257Z,22.10
2022-10-21T07:49:15.018Z,24.30
2022-10-21T07:51:43.729Z,24.58
2022-10-21T07:54:14.488Z,19.15
2022-10-21T07:56:50.215Z,21.50
2022-10-21T07:59:20.640Z,21.13
2022-10-21T08:04:21.382Z,106.18
2022-10-21T08:06:50.451Z,78.15
2022-10-21T08:09:18.054Z,26.48
2022-10-21T08:11:45.921Z,20.52
2022-10-21T08:14:15.676Z,24.90
2022-10-21T08:16:43.284Z,26.38
2022-10-21T08:19:20.041Z,35.03
2022-10-21T08:21:47.951Z,24.80
2022-10-21T08:24:15.656Z,33.15
2022-10-21T08:26:43.058Z,24.55
2022-10-21T08:29:10.295Z,25.10
2022-10-21T08:31:38.923Z,26.10
2022-10-21T08:34:06.156Z,24.00
2022-10-21T08:36:33.590Z,27.40
2022-10-21T08:39:00.837Z,24.48
2022-10-21T08:41:31.120Z,30.10
2022-10-21T08:44:35.304Z,26.73
2022-10-21T08:47:31.064Z,27.20
2022-10-21T08:50:06.810Z,31.17
2022-10-21T08:52:54.861Z,29.45
2022-10-21T08:55:45.596Z,22.15
2022-10-21T08:58:23.215Z,22.42
2022-10-21T09:00:53.580Z,24.48
2022-10-21T09:03:54.712Z,25.25
2022-10-21T09:06:44.283Z,28.45
2022-10-21T09:09:32.251Z,24.52
2022-10-21T09:12:25.077Z,27.38
2022-10-21T09:15:17.170Z,30.23
2022-10-21T09:18:12.189Z,32.83
2022-10-21T09:20:55.998Z,31.73
2022-10-21T09:23:52.347Z,35.90
2022-10-21T09:26:42.196Z,35.10
2022-10-21T09:29:33.381Z,34.60
2022-10-21T09:32:21.917Z,34.28
2022-10-21T09:35:32.252Z,33.33
2022-10-21T09:38:16.678Z,32.38
2022-10-21T09:40:47.365Z,27.42
2022-10-21T09:43:23.634Z,29.08
2022-10-21T09:45:51.096Z,23.17
2022-10-21T09:48:18.396Z,24.10
2022-10-21T09:51:01.312Z,26.08
2022-10-21T09:53:37.641Z,25.75
2022-10-21T09:56:14.932Z,27.80
2022-10-21T09:58:49.756Z,24.42
2022-10-21T10:01:23.365Z,21.00
2022-10-21T10:03:53.203Z,16.85
2022-10-21T10:06:43.670Z,21.65
2022-10-21T10:09:37.038Z,18.67
2022-10-21T10:12:12.174Z,22.08
2022-10-21T10:14:43.533Z,18.30
2022-10-21T10:17:37.323Z,81.45
2022-10-21T10:20:04.717Z,26.10
2022-10-21T10:23:19.402Z,39.30
2022-10-21T10:25:52.100Z,19.42
2022-10-21T10:28:25.704Z,17.00
2022-10-21T10:30:56.778Z,16.40
2022-10-21T10:33:31.864Z,17.63
2022-10-21T10:36:05.553Z,18.45
2022-10-21T10:38:51.916Z,18.83
2022-10-21T10:41:19.814Z,14.02
2022-10-21T10:43:53.300Z,15.10
2022-10-21T10:46:32.296Z,18.48
2022-10-21T10:49:14.203Z,17.38
2022-10-21T10:51:45.627Z,16.27
2022-10-21T10:54:27.467Z,15.65
2022-10-21T10:57:01.013Z,17.67
2022-10-21T10:59:36.900Z,17.60
2022-10-21T11:02:10.510Z,14.40
2022-10-21T11:05:24.153Z,14.43
2022-10-21T11:07:54.568Z,18.38
2022-10-21T11:10:27.460Z,18.15
2022-10-21T11:12:54.917Z,20.90
2022-10-21T11:15:49.666Z,27.85
2022-10-21T11:18:36.358Z,19.15
2022-10-21T11:21:18.139Z,17.40
2022-10-21T11:24:09.035Z,19.15
2022-10-21T11:27:19.063Z,20.83
2022-10-21T11:29:46.636Z,20.33
2022-10-21T11:32:58.171Z,15.82
2022-10-21T11:35:34.069Z,19.10
2022-10-21T11:38:06.782Z,17.42
2022-10-21T11:41:13.565Z,16.63
2022-10-21T11:44:15.818Z,19.02
2022-10-21T11:47:29.199Z,17.67
2022-10-21T11:50:14.271Z,16.23
2022-10-21T11:53:12.493Z,15.70
2022-10-21T11:56:01.371Z,15.50
2022-10-21T11:58:43.874Z,14.40
2022-10-21T12:01:16.715Z,17.73
2022-10-21T12:04:24.515Z,17.70
2022-10-21T12:07:37.422Z,15.10
2022-10-21T12:10:35.436Z,16.60
2022-10-21T12:13:15.648Z,15.63
2022-10-21T12:16:14.901Z,15.32
2022-10-21T12:18:53.384Z,15.55
2022-10-21T12:21:27.734Z,14.93
2022-10-21T12:24:26.063Z,13.02
2022-10-21T12:27:43.334Z,15.77
2022-10-21T12:30:23.518Z,13.15
2022-10-21T12:33:37.458Z,17.63
2022-10-21T12:36:23.128Z,11.75
2022-10-21T12:38:56.536Z,14.60
2022-10-21T12:41:34.551Z,15.65
2022-10-21T12:44:01.933Z,19.33
2022-10-21T12:46:55.701Z,13.82
2022-10-21T12:49:32.898Z,17.80
2022-10-21T12:52:03.181Z,17.98
2022-10-21T12:54:57.104Z,24.00
2022-10-21T12:57:31.512Z,18.27
2022-10-21T13:03:13.618Z,16.55
2022-10-21T13:05:40.889Z,16.63
2022-10-21T13:08:22.842Z,18.13
2022-10-21T13:11:05.436Z,16.90
2022-10-21T13:13:38.890Z,14.13
2022-10-21T13:16:21.500Z,16.08
2022-10-21T13:19:26.270Z,16.55
2022-10-21T13:22:13.845Z,13.18
2022-10-21T13:24:42.380Z,13.30
2022-10-21T13:27:32.275Z,15.02
2022-10-21T13:30:00.714Z,16.80
2022-10-21T13:32:34.964Z,13.52
2022-10-21T13:35:43.164Z,13.25
2022-10-21T13:38:30.439Z,14.75
2022-10-21T13:41:03.521Z,14.32
2022-10-21T13:43:45.202Z,14.40
2022-10-21T13:46:17.818Z,13.30
2022-10-21T13:48:48.787Z,7.75
2022-10-21T13:51:20.238Z,9.63
2022-10-21T13:53:49.662Z,7.25
2022-10-21T13:56:24.846Z,6.28
2022-10-21T13:58:53.212Z,6.97
2022-10-21T14:01:30.862Z,5.78
2022-10-21T14:04:23.972Z,5.72
2022-10-21T14:07:19.387Z,8.43
2022-10-21T14:09:52.170Z,6.05
2022-10-21T14:12:46.425Z,6.88
2022-10-21T14:15:19.708Z,7.53
2022-10-21T14:17:59.500Z,5.93
2022-10-21T14:20:37.470Z,5.60
2022-10-21T14:23:19.228Z,6.05
2022-10-21T14:25:51.239Z,8.60
2022-10-21T14:28:21.029Z,11.88
2022-10-21T14:30:50.126Z,8.15
2022-10-21T14:33:25.642Z,8.57
2022-10-21T14:36:11.294Z,7.85
2022-10-21T14:39:17.817Z,5.55
2022-10-21T14:41:46.126Z,6.95
2022-10-21T14:44:22.527Z,7.70
2022-10-21T14:46:54.733Z,7.85
2022-10-21T14:49:25.049Z,8.88
2022-10-21T14:52:08.232Z,10.38
2022-10-21T14:54:49.530Z,11.02
2022-10-21T14:57:40.962Z,9.85
2022-10-21T15:00:27.628Z,12.55
2022-10-21T15:03:00.328Z,10.15
2022-10-21T15:05:48.611Z,10.75
2022-10-21T15:08:22.843Z,12.40
2022-10-21T15:11:05.068Z,10.32
2022-10-21T15:13:33.486Z,13.35
2022-10-21T15:16:04.537Z,12.85
2022-10-21T15:18:53.442Z,13.68
2022-10-21T15:21:46.628Z,16.02
2022-10-21T15:24:40.358Z,15.40
2022-10-21T15:27:15.224Z,17.67
2022-10-21T15:29:47.932Z,21.17
2022-10-21T15:32:19.663Z,24.48
2022-10-21T15:34:51.857Z,29.92
2022-10-21T15:37:19.896Z,29.75
2022-10-21T15:39:48.604Z,31.17
2022-10-21T15:42:19.205Z,33.50
2022-10-21T15:44:49.855Z,44.90
2022-10-21T15:47:17.701Z,37.65
2022-10-21T15:49:49.360Z,42.28
2022-10-21T15:52:17.102Z,35.33
2022-10-21T15:54:44.980Z,26.10
2022-10-21T15:57:21.096Z,23.35
2022-10-21T15:59:49.238Z,23.05
2022-10-21T16:02:17.881Z,18.73
2022-10-21T16:04:45.885Z,19.23
2022-10-21T16:07:29.362Z,14.68
2022-10-21T16:09:57.413Z,14.25
2022-10-21T16:12:24.785Z,15.68
2022-10-21T16:14:52.409Z,15.85
2022-10-21T16:17:20.718Z,19.65
2022-10-21T16:19:48.162Z,20.73
2022-10-21T16:22:22.787Z,19.15
2022-10-21T16:24:50.285Z,18.05
2022-10-21T16:27:31.200Z,18.38
2022-10-21T16:30:28.030Z,20.30
2022-10-21T16:32:57.192Z,17.67
2022-10-21T16:35:25.130Z,20.80
2022-10-21T16:37:52.784Z,24.92
2022-10-21T16:40:28.501Z,19.23
2022-10-21T16:42:55.680Z,17.83
2022-10-21T16:45:28.854Z,19.52
2022-10-21T16:47:59.554Z,18.52
2022-10-21T16:50:33.085Z,17.52
2022-10-21T16:53:02.182Z,21.65
2022-10-21T16:55:29.643Z,23.05
2022-10-21T16:57:56.963Z,25.13
2022-10-21T17:00:24.456Z,25.75
2022-10-21T17:02:52.711Z,26.90
2022-10-21T17:05:20.304Z,30.23
2022-10-21T17:07:47.582Z,26.45
2022-10-21T17:10:15.216Z,26.50
2022-10-21T17:12:42.889Z,26.35
2022-10-21T17:15:15.477Z,21.35
2022-10-21T17:17:42.834Z,20.73
2022-10-21T17:20:11.082Z,24.65
2022-10-21T17:22:38.260Z,21.45
2022-10-21T17:25:06.129Z,22.30
2022-10-21T17:27:33.285Z,25.13
2022-10-21T17:30:00.657Z,21.08
2022-10-21T17:32:27.873Z,21.27
2022-10-21T17:34:55.258Z,19.35
2022-10-21T17:37:22.419Z,18.40
2022-10-21T17:39:50.668Z,18.75
2022-10-21T17:42:17.889Z,15.95
2022-10-21T17:44:45.677Z,16.73
2022-10-21T17:47:14.897Z,17.70
2022-10-21T17:49:42.407Z,21.77
2022-10-21T17:52:10.146Z,19.17
2022-10-21T17:54:37.563Z,19.60
2022-10-21T17:57:04.955Z,18.20
2022-10-21T17:59:32.931Z,19.73
2022-10-21T18:02:00.875Z,17.98
2022-10-21T18:04:28.758Z,17.63
2022-10-21T18:06:56.144Z,15.25
2022-10-21T18:09:23.659Z,15.55
2022-10-21T18:11:50.898Z,15.25
2022-10-21T18:14:18.411Z,16.20
2022-10-21T18:16:45.664Z,16.70
2022-10-21T18:19:14.014Z,17.77
2022-10-21T18:21:41.201Z,23.55
2022-10-21T18:24:12.384Z,20.60
2022-10-21T18:26:40.315Z,20.92
2022-10-21T18:29:58.542Z,23.58
2022-10-21T18:32:26.047Z,20.52
2022-10-21T18:34:53.670Z,19.58
2022-10-21T18:37:21.226Z,19.40
2022-10-21T18:39:48.607Z,17.05
2022-10-21T18:42:16.120Z,15.88
2022-10-21T18:44:43.737Z,18.52
2022-10-21T18:47:12.069Z,15.38
2022-10-21T18:49:39.307Z,15.70
2022-10-21T18:52:06.806Z,17.40
2022-10-21T18:54:34.105Z,19.92
2022-10-21T18:57:01.630Z,18.65
2022-10-21T18:59:28.863Z,20.25
2022-10-21T19:01:56.495Z,17.90
2022-10-21T19:04:24.590Z,22.58
2022-10-21T19:06:52.102Z,20.08
2022-10-21T19:09:23.309Z,18.20
2022-10-21T19:11:50.944Z,26.10
2022-10-21T19:14:19.704Z,18.80
2022-10-21T19:16:48.878Z,19.90
2022-10-21T19:19:17.317Z,21.80
2022-10-21T19:21:44.886Z,22.73
2022-10-21T19:24:12.425Z,24.13
2022-10-21T19:26:44.103Z,17.33
2022-10-21T19:29:16.685Z,24.05
2022-10-21T19:34:26.335Z,22.33
2022-10-21T19:36:53.961Z,21.75
2022-10-21T19:39:21.589Z,22.48
2022-10-21T19:41:49.132Z,20.15
2022-10-21T19:44:16.803Z,23.02
2022-10-21T19:46:44.863Z,24.05
2022-10-21T19:49:14.656Z,24.27
2022-10-21T19:51:42.156Z,23.70
2022-10-21T19:54:13.090Z,22.50
2022-10-21T19:56:41.331Z,26.05
2022-10-21T19:59:09.905Z,25.38
2022-10-21T20:01:37.702Z,25.00
2022-10-21T20:04:05.277Z,24.02
2022-10-21T20:06:38.126Z,27.83
2022-10-21T20:09:13.891Z,26.60
2022-10-21T20:11:42.114Z,35.15
2022-10-21T20:14:13.390Z,29.55
2022-10-21T20:16:43.172Z,35.15
2022-10-21T20:19:12.737Z,31.35
2022-10-21T20:21:41.473Z,29.30
2022-10-21T20:24:10.865Z,28.10
2022-10-21T20:29:06.570Z,29.10
2022-10-21T20:31:34.832Z,28.17
2022-10-21T20:34:02.132Z,28.75
2022-10-21T20:36:35.267Z,26.20
2022-10-21T20:39:03.296Z,24.40
2022-10-21T20:41:37.352Z,23.30
2022-10-21T20:44:09.180Z,23.73
2022-10-21T20:46:37.134Z,27.52
2022-10-21T20:49:07.380Z,22.90
2022-10-21T20:51:37.553Z,23.80
2022-10-21T20:54:09.460Z,19.83
2022-10-21T20:56:40.194Z,19.92
2022-10-21T20:59:11.540Z,22.08
2022-10-21T21:01:43.194Z,20.50
2022-10-21T21:04:15.232Z,21.73
2022-10-21T21:06:47.265Z,21.70
2022-10-21T21:12:04.698Z,19.40
2022-10-21T21:14:32.514Z,21.55
2022-10-21T21:16:59.918Z,20.67
2022-10-21T21:19:27.410Z,22.02
2022-10-21T21:21:54.846Z,20.65
2022-10-21T21:24:22.367Z,23.42
2022-10-21T21:26:50.005Z,21.75
2022-10-21T21:29:17.224Z,23.48
2022-10-21T21:31:44.708Z,22.13
2022-10-21T21:34:12.155Z,19.15
2022-10-21T21:36:39.682Z,23.30
2022-10-21T21:39:08.485Z,20.83
2022-10-21T21:41:36.303Z,19.90
2022-10-21T21:44:05.950Z,20.95
2022-10-21T21:46:33.486Z,17.80
2022-10-21T21:49:05.879Z,19.30
2022-10-21T21:51:36.921Z,21.85
2022-10-21T21:54:07.776Z,18.63
2022-10-21T21:56:35.838Z,18.52
2022-10-21T21:59:04.138Z,20.35
2022-10-21T22:01:31.593Z,19.40
2022-10-21T22:03:59.719Z,18.60
2022-10-21T22:06:32.328Z,17.65
2022-10-21T22:09:01.304Z,17.00
2022-10-21T22:11:32.593Z,20.10
2022-10-21T22:14:00.401Z,18.27
2022-10-21T22:16:30.369Z,21.70
2022-10-21T22:19:00.640Z,21.25
2022-10-21T22:21:30.558Z,23.33
2022-10-21T22:23:58.153Z,20.75
2022-10-21T22:26:26.995Z,21.10
2022-10-21T22:28:55.058Z,20.10
2022-10-21T22:31:28.955Z,21.20
2022-10-21T22:34:01.807Z,21.08
2022-10-21T22:36:29.739Z,17.95
2022-10-21T22:38:57.767Z,16.95
2022-10-21T22:41:26.469Z,16.15
2022-10-21T22:43:53.703Z,18.92
2022-10-21T22:46:33.273Z,18.20
2022-10-21T22:49:02.200Z,18.33
2022-10-21T22:51:29.703Z,18.85
2022-10-21T22:53:57.062Z,20.30
2022-10-21T22:56:26.573Z,16.92
2022-10-21T22:58:54.223Z,20.05
2022-10-21T23:01:21.865Z,18.65
2022-10-21T23:03:49.044Z,18.25
2022-10-21T23:06:16.427Z,17.98
2022-10-21T23:08:43.626Z,15.73
2022-10-21T23:11:12.282Z,14.38
2022-10-21T23:13:51.101Z,15.65
2022-10-21T23:16:26.841Z,16.98
2022-10-21T23:18:54.001Z,14.68
2022-10-21T23:21:21.360Z,16.42
2022-10-21T23:23:48.509Z,15.50
2022-10-21T23:26:15.859Z,16.83
2022-10-21T23:28:42.976Z,18.92
2022-10-21T23:31:10.365Z,18.65
2022-10-21T23:33:37.551Z,14.77
2022-10-21T23:36:05.349Z,18.75
2022-10-21T23:38:32.570Z,18.42
2022-10-21T23:40:59.859Z,16.17
2022-10-21T23:43:27.202Z,15.63
2022-10-21T23:45:54.526Z,14.68
2022-10-21T23:48:21.995Z,15.57
2022-10-21T23:50:49.375Z,14.10
2022-10-21T23:53:16.613Z,14.82
2022-10-21T23:55:43.989Z,18.00
2022-10-21T23:58:11.193Z,16.27
